createdAt,value
2024-03-12T00:01:01.884Z,22.83
2024-03-12T00:03:31.615Z,25.20
2024-03-12T00:06:01.068Z,23.60
2024-03-12T00:08:31.351Z,27.90
2024-03-12T00:10:58.669Z,23.67
2024-03-12T00:13:27.910Z,26.33
2024-03-12T00:15:56.836Z,23.23
2024-03-12T00:18:27.093Z,22.40
2024-03-12T00:20:54.737Z,21.93
2024-03-12T00:23:23.642Z,26.23
2024-03-12T00:25:51.299Z,21.07
2024-03-12T00:28:18.637Z,25.37
2024-03-12T00:30:45.923Z,22.60
2024-03-12T00:33:13.139Z,20.67
2024-03-12T00:35:44.709Z,19.50
2024-03-12T00:38:12.311Z,23.50
2024-03-12T00:40:40.417Z,22.93
2024-03-12T00:43:08.883Z,23.53
2024-03-12T00:45:40.215Z,20.30
2024-03-12T00:48:19.686Z,22.53
2024-03-12T00:50:47.490Z,19.90
2024-03-12T00:53:15.510Z,21.30
2024-03-12T00:55:48.488Z,26.83
2024-03-12T00:58:16.990Z,23.43
2024-03-12T01:00:46.846Z,22.00
2024-03-12T01:03:14.250Z,22.57
2024-03-12T01:05:41.704Z,22.60
2024-03-12T01:08:09.517Z,24.50
2024-03-12T01:10:37.380Z,26.00
2024-03-12T01:13:11.039Z,21.77
2024-03-12T01:15:39.621Z,23.37
2024-03-12T01:18:06.931Z,24.77
2024-03-12T01:20:36.544Z,26.33
2024-03-12T01:23:06.306Z,22.70
2024-03-12T01:25:36.580Z,24.87
2024-03-12T01:28:06.801Z,20.60
2024-03-12T01:30:35.104Z,24.07
2024-03-12T01:33:03.773Z,24.23
2024-03-12T01:35:31.680Z,22.03
2024-03-12T01:37:59.494Z,24.20
2024-03-12T01:40:28.839Z,23.67
2024-03-12T01:43:02.776Z,24.23
2024-03-12T01:45:30.536Z,24.10
2024-03-12T01:47:59.733Z,25.53
2024-03-12T01:50:28.389Z,22.17
2024-03-12T01:52:58.710Z,25.47
2024-03-12T01:55:25.918Z,25.80
2024-03-12T01:57:53.465Z,26.57
2024-03-12T02:00:21.131Z,24.90
2024-03-12T02:02:53.792Z,27.13
2024-03-12T02:05:22.634Z,24.80
2024-03-12T02:07:51.810Z,26.93
2024-03-12T02:10:22.603Z,23.93
2024-03-12T02:12:49.731Z,25.90
2024-03-12T02:15:24.228Z,25.17
2024-03-12T02:17:53.476Z,24.03
2024-03-12T02:20:22.971Z,26.70
2024-03-12T02:22:57.044Z,26.40
2024-03-12T02:25:24.685Z,29.90
2024-03-12T02:27:52.844Z,25.37
2024-03-12T02:30:20.629Z,28.60
2024-03-12T02:32:48.480Z,27.27
2024-03-12T02:35:16.749Z,24.57
2024-03-12T02:37:44.025Z,25.10
2024-03-12T02:40:14.765Z,28.23
2024-03-12T02:42:43.538Z,29.70
2024-03-12T02:45:16.695Z,26.50
2024-03-12T02:47:45.380Z,26.37
2024-03-12T02:50:13.018Z,29.37
2024-03-12T02:52:42.973Z,26.70
2024-03-12T02:55:10.551Z,25.83
2024-03-12T02:57:38.416Z,27.63
2024-03-12T03:00:12.689Z,30.23
2024-03-12T03:02:39.847Z,28.33
2024-03-12T03:05:07.883Z,28.40
2024-03-12T03:07:36.582Z,28.93
2024-03-12T03:10:04.143Z,27.60
2024-03-12T03:12:31.479Z,31.60
2024-03-12T03:14:58.456Z,28.00
2024-03-12T03:17:26.167Z,27.33
2024-03-12T03:19:53.739Z,28.23
2024-03-12T03:22:20.737Z,31.53
2024-03-12T03:24:48.015Z,28.40
2024-03-12T03:27:15.222Z,29.40
2024-03-12T03:29:43.965Z,27.70
2024-03-12T03:32:11.291Z,29.73
2024-03-12T03:34:38.846Z,29.10
2024-03-12T03:37:05.878Z,28.93
2024-03-12T03:39:37.040Z,31.07
2024-03-12T03:42:04.385Z,32.97
2024-03-12T03:44:31.251Z,33.53
2024-03-12T03:46:58.043Z,30.43
2024-03-12T03:49:25.081Z,29.37
2024-03-12T03:51:52.993Z,38.07
2024-03-12T03:54:20.239Z,31.73
2024-03-12T03:56:47.088Z,32.90
2024-03-12T03:59:17.844Z,33.73
2024-03-12T04:01:45.060Z,32.07
2024-03-12T04:04:14.230Z,33.37
2024-03-12T04:06:45.047Z,33.30
2024-03-12T04:09:12.836Z,35.00
2024-03-12T04:11:40.265Z,30.77
2024-03-12T04:14:08.985Z,33.93
2024-03-12T04:16:35.991Z,33.90
2024-03-12T04:19:03.086Z,35.40
2024-03-12T04:21:30.633Z,36.30
2024-03-12T04:23:57.848Z,37.27
2024-03-12T04:26:24.698Z,36.47
2024-03-12T04:28:51.547Z,41.83
2024-03-12T04:31:22.116Z,34.33
2024-03-12T04:33:54.193Z,36.13
2024-03-12T04:36:25.815Z,34.30
2024-03-12T04:38:52.851Z,42.97
2024-03-12T04:41:22.587Z,39.90
2024-03-12T04:43:49.893Z,36.20
2024-03-12T04:46:17.438Z,41.63
2024-03-12T04:48:46.419Z,38.43
2024-03-12T04:51:13.712Z,40.17
2024-03-12T04:53:40.999Z,40.37
2024-03-12T04:56:09.297Z,43.37
2024-03-12T04:58:37.210Z,40.07
2024-03-12T05:01:06.928Z,40.07
2024-03-12T05:03:34.616Z,41.63
2024-03-12T05:06:01.826Z,36.57
2024-03-12T05:08:29.107Z,40.77
2024-03-12T05:10:57.280Z,41.37
2024-03-12T05:13:24.766Z,40.00
2024-03-12T05:15:51.796Z,41.13
2024-03-12T05:18:18.725Z,40.30
2024-03-12T05:20:46.045Z,64.20
2024-03-12T05:23:13.434Z,79.13
2024-03-12T05:25:41.474Z,50.50
2024-03-12T05:28:10.276Z,50.67
2024-03-12T05:30:38.779Z,49.37
2024-03-12T05:33:10.872Z,47.03
2024-03-12T05:35:40.270Z,48.90
2024-03-12T05:38:13.334Z,51.00
2024-03-12T05:40:58.990Z,47.63
2024-03-12T05:43:44.440Z,49.07
2024-03-12T05:46:30.873Z,50.07
2024-03-12T05:48:58.387Z,48.07
2024-03-12T05:51:26.370Z,48.53
2024-03-12T05:53:53.715Z,48.77
2024-03-12T05:56:21.367Z,44.93
2024-03-12T05:58:48.433Z,44.53
2024-03-12T06:01:16.026Z,45.97
2024-03-12T06:03:43.435Z,45.23
2024-03-12T06:06:10.884Z,41.70
2024-03-12T06:08:38.143Z,50.47
2024-03-12T06:11:05.387Z,41.70
2024-03-12T06:13:32.751Z,46.37
2024-03-12T06:15:59.694Z,49.53
2024-03-12T06:18:29.522Z,47.53
2024-03-12T06:20:57.058Z,47.13
2024-03-12T06:23:24.780Z,45.23
2024-03-12T06:25:52.030Z,49.57
2024-03-12T06:28:23.201Z,47.83
2024-03-12T06:30:50.738Z,45.40
2024-03-12T06:33:18.745Z,44.80
2024-03-12T06:35:49.184Z,47.67
2024-03-12T06:38:17.020Z,44.97
2024-03-12T06:40:44.837Z,46.10
2024-03-12T06:43:14.658Z,46.27
2024-03-12T06:45:42.407Z,46.30
2024-03-12T06:48:09.583Z,47.73
2024-03-12T06:50:36.478Z,49.43
2024-03-12T06:53:03.493Z,42.77
2024-03-12T06:55:30.663Z,48.57
2024-03-12T06:58:03.720Z,52.33
2024-03-12T07:00:38.497Z,42.70
2024-03-12T07:03:06.377Z,50.57
2024-03-12T07:05:44.610Z,48.10
2024-03-12T07:08:11.776Z,46.53
2024-03-12T07:10:41.919Z,50.23
2024-03-12T07:13:09.632Z,55.00
2024-03-12T07:15:40.077Z,46.27
2024-03-12T07:18:08.393Z,44.23
2024-03-12T07:20:35.960Z,49.17
2024-03-12T07:23:03.986Z,46.17
2024-03-12T07:25:34.425Z,50.60
2024-03-12T07:28:08.950Z,52.27
2024-03-12T07:30:36.947Z,50.47
2024-03-12T07:33:04.942Z,48.97
2024-03-12T07:35:35.714Z,44.53
2024-03-12T07:38:04.997Z,55.43
2024-03-12T07:40:32.874Z,46.67
2024-03-12T07:43:00.508Z,55.10
2024-03-12T07:45:28.777Z,51.33
2024-03-12T07:47:57.440Z,46.80
2024-03-12T07:50:29.785Z,53.37
2024-03-12T07:52:57.594Z,58.03
2024-03-12T07:55:25.374Z,51.47
2024-03-12T07:57:52.665Z,49.13
2024-03-12T08:00:20.618Z,43.73
2024-03-12T08:02:48.151Z,46.90
2024-03-12T08:05:15.468Z,46.83
2024-03-12T08:07:45.641Z,46.37
2024-03-12T08:10:13.750Z,50.30
2024-03-12T08:12:41.580Z,41.73
2024-03-12T08:15:10.383Z,49.40
2024-03-12T08:17:39.215Z,50.57
2024-03-12T08:20:07.309Z,45.13
2024-03-12T08:22:34.157Z,46.10
2024-03-12T08:25:01.078Z,47.07
2024-03-12T08:27:28.117Z,44.33
2024-03-12T08:29:58.307Z,45.47
2024-03-12T08:32:26.411Z,42.20
2024-03-12T08:34:53.531Z,47.60
2024-03-12T08:37:20.442Z,42.30
2024-03-12T08:39:48.046Z,58.60
2024-03-12T08:42:14.979Z,42.37
2024-03-12T08:44:41.917Z,39.47
2024-03-12T08:47:09.918Z,45.13
2024-03-12T08:49:36.764Z,47.47
2024-03-12T08:52:04.672Z,46.47
2024-03-12T08:54:34.891Z,34.00
2024-03-12T08:57:05.230Z,45.47
2024-03-12T08:59:32.887Z,46.50
2024-03-12T09:02:01.128Z,40.27
2024-03-12T09:04:32.591Z,43.53
2024-03-12T09:07:00.290Z,38.03
2024-03-12T09:09:27.965Z,41.13
2024-03-12T09:11:57.214Z,35.73
2024-03-12T09:14:24.778Z,40.80
2024-03-12T09:16:52.818Z,37.47
2024-03-12T09:19:19.677Z,45.67
2024-03-12T09:21:46.955Z,39.67
2024-03-12T09:24:16.404Z,40.20
2024-03-12T09:26:45.299Z,45.43
2024-03-12T09:29:14.320Z,38.93
2024-03-12T09:31:44.443Z,36.03
2024-03-12T09:34:12.246Z,37.67
2024-03-12T09:36:39.538Z,41.73
2024-03-12T09:39:12.301Z,38.13
2024-03-12T09:41:44.118Z,43.63
2024-03-12T09:44:12.414Z,37.10
2024-03-12T09:46:42.336Z,38.43
2024-03-12T09:49:14.368Z,34.50
2024-03-12T09:51:42.710Z,36.17
2024-03-12T09:54:10.415Z,40.87
2024-03-12T09:56:38.588Z,35.77
2024-03-12T09:59:09.149Z,39.03
2024-03-12T10:01:39.512Z,36.47
2024-03-12T10:04:07.771Z,37.17
2024-03-12T10:06:34.980Z,37.37
2024-03-12T10:09:02.249Z,35.27
2024-03-12T10:11:31.402Z,34.80
2024-03-12T10:14:00.021Z,32.23
2024-03-12T10:16:29.868Z,38.27
2024-03-12T10:19:11.336Z,37.57
2024-03-12T10:21:39.038Z,34.60
2024-03-12T10:24:23.989Z,33.73
2024-03-12T10:26:51.200Z,37.90
2024-03-12T10:29:21.797Z,33.00
2024-03-12T10:31:49.325Z,37.17
2024-03-12T10:34:21.314Z,37.70
2024-03-12T10:36:50.904Z,35.10
2024-03-12T10:39:29.553Z,32.47
2024-03-12T10:41:59.032Z,38.63
2024-03-12T10:44:29.173Z,37.37
2024-03-12T10:46:59.645Z,39.33
2024-03-12T10:49:27.918Z,36.03
2024-03-12T10:51:56.473Z,32.63
2024-03-12T10:54:24.089Z,30.70
2024-03-12T10:56:51.478Z,36.90
2024-03-12T10:59:20.726Z,30.83
2024-03-12T11:01:49.421Z,32.27
2024-03-12T11:04:17.131Z,32.80
2024-03-12T11:06:46.663Z,30.87
2024-03-12T11:09:22.485Z,31.63
2024-03-12T11:11:53.611Z,32.27
2024-03-12T11:14:21.844Z,33.70
2024-03-12T11:16:49.140Z,31.83
2024-03-12T11:19:24.486Z,32.87
2024-03-12T11:22:06.992Z,33.53
2024-03-12T11:24:50.780Z,29.83
2024-03-12T11:27:26.916Z,30.37
2024-03-12T11:30:06.200Z,34.73
2024-03-12T11:32:41.620Z,31.50
2024-03-12T11:35:29.535Z,31.13
2024-03-12T11:37:59.524Z,33.60
2024-03-12T11:40:48.112Z,29.23
2024-03-12T11:43:39.234Z,35.40
2024-03-12T11:46:10.990Z,29.30
2024-03-12T11:48:42.651Z,33.03
2024-03-12T11:51:13.469Z,36.43
2024-03-12T11:53:42.720Z,29.23
2024-03-12T11:56:12.306Z,26.23
2024-03-12T11:58:48.420Z,31.87
2024-03-12T12:01:24.621Z,27.13
2024-03-12T12:04:00.620Z,27.93
2024-03-12T12:06:28.703Z,30.03
2024-03-12T12:09:00.630Z,31.27
2024-03-12T12:11:29.804Z,32.53
2024-03-12T12:14:00.577Z,28.83
2024-03-12T12:16:29.689Z,32.53
2024-03-12T12:19:06.644Z,32.87
2024-03-12T12:21:34.990Z,31.20
2024-03-12T12:24:04.473Z,25.63
2024-03-12T12:26:34.513Z,28.03
2024-03-12T12:29:04.767Z,27.43
2024-03-12T12:31:36.951Z,28.63
2024-03-12T12:34:06.527Z,44.00
2024-03-12T12:36:37.183Z,41.50
2024-03-12T12:39:05.477Z,29.07
2024-03-12T12:41:36.198Z,30.33
2024-03-12T12:44:22.632Z,29.30
2024-03-12T12:46:50.367Z,31.43
2024-03-12T12:49:18.770Z,31.00
2024-03-12T12:51:47.841Z,31.97
2024-03-12T12:54:16.860Z,29.83
2024-03-12T12:56:45.727Z,29.53
2024-03-12T12:59:17.957Z,35.60
2024-03-12T13:01:48.932Z,28.13
2024-03-12T13:04:21.425Z,30.70
2024-03-12T13:06:48.690Z,31.63
2024-03-12T13:09:33.305Z,26.47
2024-03-12T13:12:01.763Z,29.43
2024-03-12T13:14:29.029Z,28.20
2024-03-12T13:16:56.487Z,27.47
2024-03-12T13:19:24.393Z,26.77
2024-03-12T13:21:52.073Z,28.30
2024-03-12T13:24:22.213Z,31.00
2024-03-12T13:26:49.778Z,31.27
2024-03-12T13:29:17.070Z,33.30
2024-03-12T13:31:44.481Z,32.20
2024-03-12T13:34:11.347Z,33.23
2024-03-12T13:36:38.245Z,31.80
2024-03-12T13:39:07.090Z,28.70
2024-03-12T13:41:33.954Z,28.30
2024-03-12T13:44:00.735Z,33.67
2024-03-12T13:46:27.646Z,29.30
2024-03-12T13:49:14.813Z,27.30
2024-03-12T13:51:44.029Z,27.93
2024-03-12T13:54:11.761Z,30.63
2024-03-12T13:56:39.205Z,28.77
2024-03-12T13:59:06.298Z,31.73
2024-03-12T14:01:33.815Z,27.73
2024-03-12T14:04:01.559Z,25.97
2024-03-12T14:06:31.246Z,29.53
2024-03-12T14:08:58.178Z,31.60
2024-03-12T14:11:28.560Z,31.17
2024-03-12T14:13:57.152Z,33.70
2024-03-12T14:16:25.351Z,32.37
2024-03-12T14:18:53.804Z,28.10
2024-03-12T14:21:22.162Z,26.87
2024-03-12T14:23:49.717Z,29.60
2024-03-12T14:26:20.177Z,33.93
2024-03-12T14:28:47.674Z,29.33
2024-03-12T14:31:15.615Z,29.47
2024-03-12T14:33:43.469Z,32.90
2024-03-12T14:36:11.336Z,29.10
2024-03-12T14:38:39.086Z,31.33
2024-03-12T14:41:07.562Z,29.90
2024-03-12T14:43:35.570Z,28.43
2024-03-12T14:46:06.034Z,25.53
2024-03-12T14:48:35.127Z,29.23
2024-03-12T14:51:02.523Z,27.70
2024-03-12T14:53:29.858Z,30.43
2024-03-12T14:56:00.197Z,31.87
2024-03-12T14:58:28.757Z,28.07
2024-03-12T15:00:56.143Z,29.63
2024-03-12T15:03:23.399Z,26.77
2024-03-12T15:05:54.928Z,30.70
2024-03-12T15:08:22.689Z,31.60
2024-03-12T15:10:49.987Z,25.10
2024-03-12T15:13:17.400Z,26.33
2024-03-12T15:15:45.562Z,24.23
2024-03-12T15:18:14.329Z,27.13
2024-03-12T15:20:43.214Z,27.83
2024-03-12T15:23:10.677Z,25.53
2024-03-12T15:25:37.746Z,29.17
2024-03-12T15:28:05.419Z,26.17
2024-03-12T15:30:34.585Z,31.27
2024-03-12T15:33:02.018Z,32.30
2024-03-12T15:35:30.316Z,27.57
2024-03-12T15:37:59.809Z,26.60
2024-03-12T15:40:27.513Z,30.40
2024-03-12T15:42:55.563Z,26.83
2024-03-12T15:45:23.610Z,28.10
2024-03-12T15:47:50.958Z,33.10
2024-03-12T15:50:18.333Z,29.70
2024-03-12T15:52:45.281Z,27.57
2024-03-12T15:55:13.602Z,25.83
2024-03-12T15:57:41.923Z,26.50
2024-03-12T16:00:10.094Z,28.20
2024-03-12T16:02:37.500Z,30.03
2024-03-12T16:05:07.380Z,28.90
2024-03-12T16:07:37.949Z,28.17
2024-03-12T16:10:05.704Z,32.70
2024-03-12T16:12:33.255Z,35.63
2024-03-12T16:15:00.668Z,34.07
2024-03-12T16:17:31.632Z,36.67
2024-03-12T16:19:59.588Z,37.57
2024-03-12T16:22:26.828Z,33.67
2024-03-12T16:24:55.270Z,40.80
2024-03-12T16:27:22.054Z,36.23
2024-03-12T16:29:48.975Z,40.53
2024-03-12T16:32:17.053Z,38.57
2024-03-12T16:34:45.225Z,39.60
2024-03-12T16:37:14.675Z,38.77
2024-03-12T16:39:42.045Z,37.47
2024-03-12T16:42:10.618Z,39.13
2024-03-12T16:44:37.884Z,35.53
2024-03-12T16:47:08.350Z,40.43
2024-03-12T16:49:38.767Z,37.33
2024-03-12T16:52:11.850Z,37.67
2024-03-12T16:54:39.538Z,35.00
2024-03-12T16:57:06.796Z,43.63
2024-03-12T16:59:34.726Z,38.10
2024-03-12T17:02:05.052Z,41.07
2024-03-12T17:04:32.940Z,39.13
2024-03-12T17:07:09.107Z,35.30
2024-03-12T17:12:06.447Z,41.93
2024-03-12T17:14:36.227Z,38.20
2024-03-12T17:17:07.242Z,40.53
2024-03-12T17:19:36.497Z,42.33
2024-03-12T17:22:06.764Z,44.93
2024-03-12T17:24:35.551Z,38.63
2024-03-12T17:27:06.127Z,47.93
2024-03-12T17:29:33.264Z,49.83
2024-03-12T17:32:00.682Z,44.13
2024-03-12T17:34:29.045Z,46.37
2024-03-12T17:36:58.110Z,47.33
2024-03-12T17:39:25.461Z,47.97
2024-03-12T17:41:53.059Z,47.17
2024-03-12T17:44:20.397Z,50.33
2024-03-12T17:46:48.477Z,53.17
2024-03-12T17:49:20.794Z,47.73
2024-03-12T17:51:48.187Z,47.17
2024-03-12T17:54:18.344Z,51.23
2024-03-12T17:56:49.435Z,52.80
2024-03-12T17:59:20.277Z,49.77
2024-03-12T18:01:48.243Z,51.90
2024-03-12T18:04:15.906Z,51.93
2024-03-12T18:06:44.030Z,45.83
2024-03-12T18:09:19.920Z,45.53
2024-03-12T18:11:47.666Z,47.20
2024-03-12T18:14:15.839Z,56.97
2024-03-12T18:16:42.617Z,48.97
2024-03-12T18:19:09.903Z,55.53
2024-03-12T18:21:37.787Z,50.70
2024-03-12T18:24:06.762Z,58.83
2024-03-12T18:26:34.349Z,62.10
2024-03-12T18:29:04.168Z,51.93
2024-03-12T18:31:31.709Z,57.43
2024-03-12T18:33:59.124Z,51.13
2024-03-12T18:36:25.957Z,50.43
2024-03-12T18:38:52.778Z,50.03
2024-03-12T18:41:20.069Z,58.70
2024-03-12T18:43:46.830Z,54.37
2024-03-12T18:46:13.812Z,53.93
2024-03-12T18:48:42.317Z,63.20
2024-03-12T18:51:10.730Z,56.93
2024-03-12T18:53:39.015Z,71.20
2024-03-12T18:56:06.200Z,65.50
2024-03-12T18:58:33.428Z,68.50
2024-03-12T19:01:02.710Z,74.40
2024-03-12T19:03:51.149Z,60.43
2024-03-12T19:06:22.075Z,53.50
2024-03-12T19:08:53.915Z,53.73
2024-03-12T19:11:21.290Z,52.37
2024-03-12T19:13:48.683Z,58.30
2024-03-12T19:16:19.897Z,60.80
2024-03-12T19:18:51.058Z,51.17
2024-03-12T19:21:20.735Z,50.33
2024-03-12T19:23:49.618Z,51.47
2024-03-12T19:26:19.034Z,54.33
2024-03-12T19:28:46.928Z,55.57
2024-03-12T19:31:15.773Z,54.53
2024-03-12T19:33:45.070Z,57.73
2024-03-12T19:36:15.704Z,55.63
2024-03-12T19:38:42.734Z,60.17
2024-03-12T19:41:13.463Z,52.60
2024-03-12T19:43:40.690Z,56.97
2024-03-12T19:46:08.964Z,57.97
2024-03-12T19:48:37.082Z,57.20
2024-03-12T19:51:05.271Z,63.73
2024-03-12T19:53:34.288Z,60.87
2024-03-12T19:56:01.735Z,70.43
2024-03-12T19:58:29.555Z,68.60
2024-03-12T20:00:56.864Z,55.53
2024-03-12T20:03:26.598Z,53.83
2024-03-12T20:05:56.280Z,62.23
2024-03-12T20:08:24.140Z,64.03
2024-03-12T20:10:51.060Z,59.87
2024-03-12T20:13:18.008Z,61.90
2024-03-12T20:15:46.515Z,62.30
2024-03-12T20:18:15.063Z,57.67
2024-03-12T20:20:44.608Z,64.63
2024-03-12T20:23:12.389Z,58.53
2024-03-12T20:25:41.019Z,64.53
2024-03-12T20:28:10.861Z,64.27
2024-03-12T20:30:40.583Z,51.03
2024-03-12T20:33:09.946Z,63.63
2024-03-12T20:35:39.992Z,57.20
2024-03-12T20:38:09.809Z,58.00
2024-03-12T20:40:37.359Z,51.53
2024-03-12T20:43:07.050Z,58.17
2024-03-12T20:45:35.735Z,58.77
2024-03-12T20:48:04.186Z,60.80
2024-03-12T20:50:31.047Z,60.70
2024-03-12T20:52:58.713Z,63.67
2024-03-12T20:55:25.784Z,60.60
2024-03-12T20:57:53.252Z,63.43
2024-03-12T21:00:39.386Z,57.50
2024-03-12T21:03:10.380Z,57.73
2024-03-12T21:05:43.098Z,54.60
2024-03-12T21:08:12.414Z,72.50
2024-03-12T21:10:44.369Z,64.73
2024-03-12T21:13:12.466Z,58.43
2024-03-12T21:15:39.292Z,53.57
2024-03-12T21:18:07.255Z,61.30
2024-03-12T21:20:35.335Z,60.20
2024-03-12T21:23:09.198Z,58.67
2024-03-12T21:25:36.734Z,66.43
2024-03-12T21:28:04.399Z,55.57
2024-03-12T21:30:32.897Z,59.20
2024-03-12T21:33:00.372Z,61.97
2024-03-12T21:35:27.647Z,59.87
2024-03-12T21:37:54.616Z,66.10
2024-03-12T21:40:24.043Z,62.93
2024-03-12T21:42:51.630Z,66.23
2024-03-12T21:45:20.351Z,62.43
2024-03-12T21:47:49.006Z,68.27
2024-03-12T21:50:17.083Z,60.30
2024-03-12T21:52:44.530Z,65.43
2024-03-12T21:55:12.327Z,67.10
2024-03-12T21:57:40.950Z,62.50
2024-03-12T22:00:12.548Z,71.53
2024-03-12T22:02:39.861Z,67.87
2024-03-12T22:05:07.299Z,56.87
2024-03-12T22:07:38.155Z,61.13
2024-03-12T22:10:06.572Z,52.73
2024-03-12T22:12:33.399Z,49.13
2024-03-12T22:15:00.256Z,55.77
2024-03-12T22:17:27.490Z,59.33
2024-03-12T22:19:55.606Z,57.53
2024-03-12T22:22:23.596Z,59.53
2024-03-12T22:24:50.658Z,57.07
2024-03-12T22:27:18.978Z,48.97
2024-03-12T22:29:47.139Z,44.83
2024-03-12T22:32:21.898Z,53.87
2024-03-12T22:34:49.328Z,40.87
2024-03-12T22:37:16.505Z,42.67
2024-03-12T22:39:44.043Z,41.83
2024-03-12T22:42:11.496Z,44.67
2024-03-12T22:44:38.536Z,41.70
2024-03-12T22:47:09.070Z,40.10
2024-03-12T22:49:37.186Z,45.50
2024-03-12T22:52:06.465Z,39.67
2024-03-12T22:54:34.217Z,45.30
2024-03-12T22:57:01.593Z,37.63
2024-03-12T22:59:28.702Z,42.03
2024-03-12T23:01:57.466Z,40.30
2024-03-12T23:04:26.574Z,42.03
2024-03-12T23:06:55.048Z,45.37
2024-03-12T23:09:22.637Z,45.53
2024-03-12T23:11:50.764Z,44.37
2024-03-12T23:14:20.040Z,45.47
2024-03-12T23:16:47.215Z,46.70
2024-03-12T23:19:14.384Z,41.57
2024-03-12T23:21:41.280Z,41.77
2024-03-12T23:24:09.027Z,42.50
2024-03-12T23:26:35.994Z,44.97
2024-03-12T23:29:03.256Z,37.80
2024-03-12T23:31:31.355Z,42.37
2024-03-12T23:33:59.217Z,40.80
2024-03-12T23:36:28.921Z,39.27
2024-03-12T23:38:57.439Z,39.97
2024-03-12T23:41:24.925Z,37.40
2024-03-12T23:43:53.952Z,38.60
2024-03-12T23:46:22.748Z,37.10
2024-03-12T23:48:50.203Z,35.10
2024-03-12T23:51:17.492Z,37.10
2024-03-12T23:53:44.660Z,36.77
2024-03-12T23:56:12.103Z,41.87
2024-03-12T23:58:39.850Z,39.37
